Weather History for Escanaba, MI

Change the Weather History Date:

Wednesday, August 7, 2013

  Actual Average Record
Temperature  
Mean Temperature 61 °F -  
Max Temperature 71 °F 74 °F 91 °F (2001)
Min Temperature 51 °F 59 °F 41 °F (2004)
Degree Days  
Heating Degree Days 4    
Growing Degree Days 11 (Base 50)    
Moisture  
Dew Point 58 °F    
Average Humidity 81    
Maximum Humidity 94    
Minimum Humidity 53    
Precipitation  
Precipitation 0.34 in - - ()
Sea Level Pressure  
Sea Level Pressure 29.82 in    
Wind  
Wind Speed 5 mph (NW)    
Max Wind Speed 12 mph    
Max Gust Speed 16 mph    
Visibility 9 miles    
Events Thunderstorm    
Averages and records for this station are not official NWS values.
T = Trace of Precipitation, MM = Missing Value Source: NWS Daily Summary

Daily Weather History Graph

Daily Weather History Graph

Search for Another Location

Airport:

Trip Planner

Search our weather history database for the weather conditions in past years. The results will help you decide how hot, cold, wet, or windy it might be!

Date:

Astronomy

Aug. 07, 2013 Rise Set
Actual Time 6:39 AM EDT 9:08 PM EDT
Civil Twilight 6:05 AM EDT 9:41 PM EDT
Nautical Twilight 5:23 AM EDT 10:23 PM EDT
Astronomical Twilight 4:35 AM EDT 11:10 PM EDT
Moon 7:33 AM EDT (8/7) 9:07 PM EDT (8/7)
Length of Visible Light 15h 36m
Length of Day
14h 29m
New Moon, 1% of the Moon is Illuminated
Aug 7
New Moon
Aug 14
First Quarter
Aug 20
Full
Aug 28
Last Quarter
Sep 5
New

Hourly Weather History & Observations

Time (EDT) Temp. Dew Point Humidity Pressure Visibility Wind Dir Wind Speed Gust Speed Precip Events Conditions
12:15 AM 64.4 °F 62.6 °F 94% 29.74 in 3.0 mi Calm Calm - N/A   Overcast
12:35 AM 64.4 °F 62.6 °F 94% 29.73 in 3.0 mi East 4.6 mph - N/A   Overcast
12:55 AM 64.4 °F 62.6 °F 94% 29.74 in 2.5 mi Calm Calm - N/A   Mostly Cloudy
1:15 AM 64.4 °F 62.6 °F 94% 29.75 in 3.0 mi NW 4.6 mph - N/A   Overcast
1:35 AM 64.4 °F 62.6 °F 94% 29.76 in 2.5 mi West 5.8 mph - 0.02 in   Mostly Cloudy
1:55 AM 64.4 °F 62.6 °F 94% 29.76 in 6.0 mi West 9.2 mph - 0.05 in   Overcast
2:15 AM 64.4 °F 60.8 °F 88% 29.75 in 10.0 mi West 11.5 mph - 0.06 in   Mostly Cloudy
2:35 AM 62.6 °F 60.8 °F 94% 29.75 in 10.0 mi West 6.9 mph - 0.16 in   Overcast
2:55 AM 62.6 °F 60.8 °F 94% 29.72 in 10.0 mi North 5.8 mph - 0.25 in Thunderstorm Thunderstorm
3:15 AM 62.6 °F 59.0 °F 88% 29.71 in 10.0 mi Calm Calm - 0.02 in   Overcast
3:35 AM 62.6 °F 59.0 °F 88% 29.69 in 10.0 mi ESE 3.5 mph - 0.03 in   Mostly Cloudy
3:55 AM 60.8 °F 59.0 °F 94% 29.66 in 9.0 mi East 5.8 mph - 0.03 in   Mostly Cloudy
4:15 AM 60.8 °F 59.0 °F 94% 29.67 in 10.0 mi WNW 4.6 mph - 0.01 in   Partly Cloudy
4:35 AM 60.8 °F 59.0 °F 94% 29.68 in 10.0 mi WNW 8.1 mph - 0.01 in   Clear
4:55 AM 60.8 °F 59.0 °F 94% 29.70 in 10.0 mi West 6.9 mph - 0.01 in   Partly Cloudy
5:15 AM 60.8 °F 59.0 °F 94% 29.72 in 10.0 mi West 5.8 mph - N/A   Partly Cloudy
5:35 AM 60.8 °F 59.0 °F 94% 29.72 in 10.0 mi West 5.8 mph - N/A   Clear
5:55 AM 59.0 °F 57.2 °F 94% 29.73 in 10.0 mi West 5.8 mph - N/A   Partly Cloudy
6:15 AM 59.0 °F 57.2 °F 94% 29.73 in 10.0 mi West 3.5 mph - N/A   Partly Cloudy
6:35 AM 59.0 °F 57.2 °F 94% 29.73 in 6.0 mi West 3.5 mph - N/A   Clear
6:55 AM 59.0 °F 57.2 °F 94% 29.74 in 3.0 mi WSW 3.5 mph - N/A   Clear
7:15 AM 59.0 °F 57.2 °F 94% 29.74 in 0.2 mi Calm Calm - N/A   Unknown
7:35 AM 59.0 °F 57.2 °F 94% 29.74 in 0.8 mi Calm Calm - N/A   Unknown
7:55 AM 60.8 °F 59.0 °F 94% 29.74 in 9.0 mi Calm Calm - N/A   Clear
8:15 AM 60.8 °F 59.0 °F 94% 29.75 in 10.0 mi West 3.5 mph - N/A   Clear
8:35 AM 62.6 °F 60.8 °F 94% 29.75 in 10.0 mi Calm Calm - N/A   Clear
8:55 AM 64.4 °F 60.8 °F 88% 29.76 in 10.0 mi WSW 5.8 mph - N/A   Clear
9:15 AM 64.4 °F 60.8 °F 88% 29.75 in 10.0 mi WSW 6.9 mph - N/A   Scattered Clouds
9:35 AM 64.4 °F 60.8 °F 88% 29.77 in 10.0 mi WNW 6.9 mph - N/A   Mostly Cloudy
9:55 AM 64.4 °F 60.8 °F 88% 29.77 in 10.0 mi NW 6.9 mph - N/A   Overcast
10:15 AM 64.4 °F 60.8 °F 88% 29.77 in 10.0 mi NW 8.1 mph - N/A   Overcast
10:35 AM 64.4 °F 60.8 °F 88% 29.77 in 10.0 mi North 10.4 mph - N/A   Overcast
10:55 AM 64.4 °F 60.8 °F 88% 29.79 in 10.0 mi North 9.2 mph 16.1 mph N/A   Overcast
11:15 AM 64.4 °F 59.0 °F 83% 29.81 in 10.0 mi North 6.9 mph - N/A   Overcast
11:35 AM 64.4 °F 59.0 °F 83% 29.81 in 10.0 mi North 6.9 mph - N/A   Overcast
11:55 AM 66.2 °F 59.0 °F 78% 29.82 in 10.0 mi NNW 8.1 mph - N/A   Overcast
12:15 PM 66.2 °F 59.0 °F 78% 29.83 in 10.0 mi NNW 9.2 mph - N/A   Overcast
12:35 PM 66.2 °F 59.0 °F 78% 29.83 in 10.0 mi NNW 6.9 mph - N/A   Overcast
12:55 PM 66.2 °F 59.0 °F 78% 29.84 in 10.0 mi NNW 5.8 mph - N/A   Overcast
1:15 PM 66.2 °F 59.0 °F 78% 29.84 in 10.0 mi NNW 5.8 mph - N/A   Mostly Cloudy
1:35 PM 69.8 °F 59.0 °F 68% 29.84 in 10.0 mi North 4.6 mph - N/A   Overcast
1:55 PM 66.2 °F 59.0 °F 78% 29.85 in 10.0 mi NW 4.6 mph - N/A   Overcast
2:15 PM 68.0 °F 60.8 °F 78% 29.85 in 10.0 mi Calm Calm - N/A   Overcast
2:35 PM 69.8 °F 60.8 °F 73% 29.85 in 10.0 mi Calm Calm - N/A   Overcast
2:55 PM 69.8 °F 60.8 °F 73% 29.86 in 10.0 mi WNW 9.2 mph - N/A   Mostly Cloudy
3:15 PM 66.2 °F 60.8 °F 83% 29.87 in 10.0 mi NNW 5.8 mph - N/A   Overcast
3:35 PM 68.0 °F 60.8 °F 78% 29.87 in 10.0 mi NW 4.6 mph - N/A   Overcast
3:55 PM 69.8 °F 59.0 °F 68% 29.87 in 10.0 mi NW 8.1 mph - N/A   Overcast
4:15 PM 69.8 °F 59.0 °F 68% 29.87 in 10.0 mi WNW 6.9 mph - N/A   Overcast
4:35 PM 71.6 °F 57.2 °F 60% 29.87 in 10.0 mi NW 9.2 mph - N/A   Mostly Cloudy
4:55 PM 69.8 °F 60.8 °F 73% 29.88 in 10.0 mi North 10.4 mph - N/A   Overcast
5:15 PM 69.8 °F 60.8 °F 73% 29.88 in 10.0 mi North 8.1 mph - N/A   Mostly Cloudy
5:35 PM 69.8 °F 59.0 °F 68% 29.88 in 10.0 mi North 8.1 mph 16.1 mph N/A   Scattered Clouds
5:55 PM 69.8 °F 57.2 °F 64% 29.89 in 10.0 mi NNW 11.5 mph 16.1 mph N/A   Scattered Clouds
6:15 PM 69.8 °F 57.2 °F 64% 29.90 in 10.0 mi North 9.2 mph - N/A   Partly Cloudy
6:35 PM 69.8 °F 57.2 °F 64% 29.90 in 10.0 mi NNW 8.1 mph - N/A   Scattered Clouds
6:55 PM 69.8 °F 57.2 °F 64% 29.90 in 10.0 mi NNW 6.9 mph - N/A   Mostly Cloudy
7:15 PM 69.8 °F 55.4 °F 60% 29.90 in 10.0 mi North 10.4 mph - N/A   Overcast
7:35 PM 69.8 °F 51.8 °F 53% 29.91 in 10.0 mi North 8.1 mph - N/A   Scattered Clouds
7:55 PM 68.0 °F 53.6 °F 60% 29.92 in 10.0 mi North 5.8 mph - N/A   Clear
8:15 PM 66.2 °F 53.6 °F 64% 29.93 in 10.0 mi NNE 8.1 mph - N/A   Clear
8:35 PM 64.4 °F 51.8 °F 64% 29.94 in 10.0 mi North 4.6 mph - N/A   Clear
8:55 PM 64.4 °F 50.0 °F 59% 29.94 in 10.0 mi North 3.5 mph - N/A   Clear
9:15 PM 62.6 °F 51.8 °F 68% 29.95 in 10.0 mi North 3.5 mph - N/A   Clear
9:35 PM 60.8 °F 50.0 °F 68% 29.96 in 10.0 mi North 4.6 mph - N/A   Clear
9:55 PM 59.0 °F 48.2 °F 67% 29.97 in 10.0 mi NNE 4.6 mph - N/A   Clear
10:15 PM 59.0 °F 48.2 °F 67% 29.98 in 10.0 mi North 3.5 mph - N/A   Clear
10:35 PM 53.6 °F 48.2 °F 82% 29.98 in 10.0 mi North 3.5 mph - N/A   Clear
10:55 PM 51.8 °F 48.2 °F 88% 29.99 in 10.0 mi Calm Calm - N/A   Clear
11:15 PM 53.6 °F 50.0 °F 88% 29.99 in 10.0 mi Calm Calm - N/A   Clear
11:35 PM 51.8 °F 48.2 °F 88% 29.99 in 10.0 mi WNW 3.5 mph - N/A   Clear
11:55 PM 51.8 °F 48.2 °F 88% 30.00 in 10.0 mi WNW 3.5 mph - N/A   Clear